Time;durP1;ratioP1;P1;durP2;ratioP2;P2;SDS_P1;SDS_P2;PMS_P1;PMS_P2;Temp;Humidity;BMP_temperature;BMP_pressure;BME280_temperature;BME280_humidity;BME280_pressure;Samples;Min_cycle;Max_cycle;Signal;HPM_P1;HPM_P2
2021/07/03 00:00:57;;;;;;;2.93;2.20;;;;;;;22.28;42.99;94854.63;5085633;28;20184;-67
2021/07/03 00:03:24;;;;;;;2.43;2.23;;;;;;;22.23;42.95;94851.38;5079829;28;20210;-68
2021/07/03 00:05:50;;;;;;;3.70;2.50;;;;;;;22.10;43.27;94858.56;5091208;28;20264;-69
2021/07/03 00:08:17;;;;;;;2.87;2.20;;;;;;;22.25;43.06;94855.28;5080381;28;20207;-68
2021/07/03 00:10:44;;;;;;;2.40;2.20;;;;;;;21.87;43.48;94858.16;5092246;28;20273;-68
2021/07/03 00:13:11;;;;;;;3.10;1.80;;;;;;;21.86;43.62;94863.81;5072988;28;20815;-65
2021/07/03 00:15:38;;;;;;;2.57;2.27;;;;;;;21.61;44.65;94867.41;5072618;28;20301;-68
2021/07/03 00:18:05;;;;;;;2.30;2.10;;;;;;;21.74;44.08;94855.72;5086901;28;20561;-67
2021/07/03 00:20:32;;;;;;;2.20;2.00;;;;;;;21.49;44.85;94872.69;5087335;28;20195;-66
2021/07/03 00:22:59;;;;;;;2.30;2.10;;;;;;;21.78;44.33;94856.63;5092643;28;20234;-67
2021/07/03 00:25:26;;;;;;;1.80;1.70;;;;;;;21.79;44.47;94863.53;5091471;28;20568;-68
2021/07/03 00:27:52;;;;;;;4.97;2.40;;;;;;;21.97;43.79;94871.06;5092802;28;20222;-70
2021/07/03 00:30:20;;;;;;;3.80;1.93;;;;;;;21.95;44.00;94867.94;5092116;28;20187;-68
2021/07/03 00:32:47;;;;;;;2.63;2.10;;;;;;;22.09;43.80;94867.69;5091976;28;20288;-69
2021/07/03 00:35:14;;;;;;;3.10;2.10;;;;;;;22.21;43.69;94858.97;5091760;28;20199;-68
2021/07/03 00:37:41;;;;;;;2.30;2.10;;;;;;;22.24;43.52;94861.75;5084772;28;20223;-67
2021/07/03 00:40:09;;;;;;;2.23;2.03;;;;;;;22.31;43.59;94856.66;5071429;28;20211;-66
2021/07/03 00:42:36;;;;;;;4.47;2.20;;;;;;;22.29;43.33;94861.53;5078188;28;20247;-70
2021/07/03 00:45:05;;;;;;;4.03;2.53;;;;;;;22.18;43.55;94855.03;5090317;28;20203;-68
2021/07/03 00:47:33;;;;;;;3.57;2.20;;;;;;;21.36;44.94;94857.69;5078018;28;20187;-69
2021/07/03 00:50:03;;;;;;;2.60;2.40;;;;;;;21.29;45.44;94865.44;5091990;28;20206;-68
2021/07/03 00:52:30;;;;;;;2.20;2.00;;;;;;;21.03;46.41;94857.59;5078299;28;20187;-67
2021/07/03 00:54:57;;;;;;;2.63;2.33;;;;;;;21.15;45.86;94865.66;5080573;28;20196;-69
2021/07/03 00:57:25;;;;;;;5.17;2.40;;;;;;;21.02;46.27;94862.13;5087372;28;20233;-66
2021/07/03 00:59:51;;;;;;;2.80;2.23;;;;;;;20.92;46.49;94861.69;5083427;28;20192;-66
2021/07/03 01:02:22;;;;;;;2.60;2.10;;;;;;;20.72;46.89;94865.84;5075283;28;20217;-72
2021/07/03 01:04:49;;;;;;;2.27;2.03;;;;;;;20.78;46.71;94855.78;5091445;28;20670;-67
2021/07/03 01:07:23;;;;;;;2.00;1.90;;;;;;;20.43;47.99;94864.97;5077448;28;20211;-69
2021/07/03 01:09:52;;;;;;;2.07;1.67;;;;;;;20.29;47.84;94865.16;5083827;28;20438;-67
2021/07/03 01:12:19;;;;;;;2.77;1.83;;;;;;;20.52;47.68;94871.84;5071985;28;20196;-65
2021/07/03 01:14:48;;;;;;;6.53;2.77;;;;;;;20.53;47.57;94870.75;5089743;28;20442;-66
2021/07/03 01:17:19;;;;;;;3.53;2.10;;;;;;;20.52;47.58;94871.84;5090606;28;20488;-67
2021/07/03 01:19:46;;;;;;;1.73;1.63;;;;;;;20.50;47.86;94859.94;5095169;28;20207;-65
2021/07/03 01:22:15;;;;;;;2.90;1.60;;;;;;;20.57;47.46;94861.03;5095110;28;20222;-67
2021/07/03 01:24:43;;;;;;;2.07;1.87;;;;;;;20.47;47.65;94861.38;5089949;28;20274;-68
2021/07/03 01:27:13;;;;;;;2.67;1.90;;;;;;;20.76;47.08;94853.44;5090596;28;20219;-67
2021/07/03 01:29:43;;;;;;;2.30;2.10;;;;;;;20.44;47.70;94850.56;5094992;28;20266;-67
2021/07/03 01:32:12;;;;;;;2.53;2.30;;;;;;;20.41;47.43;94849.34;5094955;28;20465;-66
2021/07/03 01:34:39;;;;;;;3.63;1.63;;;;;;;20.55;47.51;94841.13;5098650;28;20255;-68
2021/07/03 01:37:14;;;;;;;3.27;2.07;;;;;;;20.34;48.07;94838.41;5093345;28;20491;-68
2021/07/03 01:39:49;;;;;;;3.07;1.80;;;;;;;20.60;47.47;94849.72;5087518;28;20207;-69
2021/07/03 01:42:17;;;;;;;1.73;1.63;;;;;;;20.57;47.21;94838.94;5082333;28;20435;-67
2021/07/03 01:44:45;;;;;;;2.23;1.67;;;;;;;20.32;47.93;94845.91;5090419;28;20451;-68
2021/07/03 01:47:12;;;;;;;1.70;1.60;;;;;;;20.35;47.88;94842.63;5073513;28;20442;-67
2021/07/03 01:49:45;;;;;;;1.80;1.70;;;;;;;20.41;47.92;94846.69;5077545;28;20437;-68
2021/07/03 01:52:18;;;;;;;3.03;1.80;;;;;;;20.46;47.46;94830.53;5075746;28;20442;-67
2021/07/03 01:54:48;;;;;;;2.13;1.53;;;;;;;20.69;46.79;94839.06;5082750;28;20556;-66
2021/07/03 01:57:16;;;;;;;5.20;1.63;;;;;;;20.41;47.10;94844.00;5081070;28;20512;-66
2021/07/03 02:00:10;;;;;;;2.30;1.57;;;;;;;20.34;46.82;94822.44;5069077;28;20971;-68
2021/07/03 02:02:48;;;;;;;1.43;1.30;;;;;;;20.37;46.75;94845.75;5075003;28;20199;-68
2021/07/03 02:05:26;;;;;;;2.20;1.60;;;;;;;20.50;46.45;94843.97;5085710;28;20449;-65
2021/07/03 02:07:53;;;;;;;2.27;1.40;;;;;;;20.58;45.99;94841.31;5074415;28;20437;-65
2021/07/03 02:10:21;;;;;;;1.70;1.40;;;;;;;20.28;46.78;94841.53;5088876;28;20199;-65
2021/07/03 02:12:51;;;;;;;1.77;1.50;;;;;;;20.60;46.13;94836.41;5088794;28;20644;-65
2021/07/03 02:15:22;;;;;;;1.40;1.30;;;;;;;20.36;45.73;94812.25;5089181;28;20437;-66
2021/07/03 02:17:59;;;;;;;2.00;1.40;;;;;;;20.83;45.30;94843.06;5085789;28;21086;-66
2021/07/03 02:20:26;;;;;;;1.43;1.33;;;;;;;20.37;45.90;94840.41;5081098;28;20998;-68
2021/07/03 02:23:04;;;;;;;1.43;1.33;;;;;;;20.40;45.76;94823.03;5089287;28;20815;-68
2021/07/03 02:25:33;;;;;;;1.70;1.53;;;;;;;20.62;45.39;94839.53;5074161;28;20245;-68
2021/07/03 02:28:06;;;;;;;1.87;1.30;;;;;;;20.67;45.29;94827.94;5089297;28;20218;-69
2021/07/03 02:30:39;;;;;;;2.70;2.07;;;;;;;20.41;45.88;94837.91;5088251;28;20448;-67
2021/07/03 02:33:07;;;;;;;2.10;1.60;;;;;;;20.23;45.90;94839.84;5089241;28;20456;-65
2021/07/03 02:35:34;;;;;;;2.07;1.43;;;;;;;20.72;45.05;94835.75;5088696;28;20206;-67
2021/07/03 02:38:01;;;;;;;1.67;1.53;;;;;;;20.44;45.51;94830.06;5090610;28;20844;-67
2021/07/03 02:40:28;;;;;;;3.17;1.30;;;;;;;20.60;45.25;94833.75;5071495;28;20478;-69
2021/07/03 02:42:55;;;;;;;2.23;1.23;;;;;;;20.50;45.39;94847.44;5069606;28;20446;-67
2021/07/03 02:45:24;;;;;;;3.10;1.60;;;;;;;20.32;46.04;94859.22;5084252;28;20223;-67
2021/07/03 02:47:52;;;;;;;1.73;1.40;;;;;;;20.49;45.50;94864.47;5090248;28;20426;-67
2021/07/03 02:50:20;;;;;;;2.50;1.70;;;;;;;20.43;45.50;94849.81;5088151;28;20651;-65
2021/07/03 02:52:51;;;;;;;3.90;1.50;;;;;;;20.54;45.41;94856.34;5082146;28;20452;-66
2021/07/03 02:55:18;;;;;;;3.47;1.50;;;;;;;20.55;45.33;94851.78;5068243;28;20454;-68
2021/07/03 02:57:46;;;;;;;1.50;1.40;;;;;;;20.27;45.77;94848.75;5088130;28;20229;-66
2021/07/03 03:00:16;;;;;;;3.30;1.53;;;;;;;20.51;45.67;94854.31;5087761;28;20449;-69
2021/07/03 03:02:47;;;;;;;3.53;1.60;;;;;;;20.49;45.44;94863.72;5084737;28;20311;-66
2021/07/03 03:05:15;;;;;;;3.10;1.43;;;;;;;20.45;45.46;94842.28;5077833;28;20253;-69
2021/07/03 03:07:43;;;;;;;4.30;1.60;;;;;;;20.36;46.08;94865.47;5082053;28;21036;-67
2021/07/03 03:10:14;;;;;;;2.63;1.60;;;;;;;20.33;46.44;94866.09;5078814;28;20207;-68
2021/07/03 03:12:42;;;;;;;3.17;1.70;;;;;;;20.43;46.10;94865.78;5087922;28;20205;-67
2021/07/03 03:15:13;;;;;;;2.67;1.93;;;;;;;20.35;45.88;94869.22;5068889;28;20450;-67
2021/07/03 03:17:45;;;;;;;3.70;2.03;;;;;;;20.09;46.68;94871.09;5083523;28;20576;-70
2021/07/03 03:20:14;;;;;;;3.00;1.80;;;;;;;20.27;46.59;94880.69;5089370;28;20199;-67
2021/07/03 03:22:42;;;;;;;3.40;1.80;;;;;;;20.04;47.04;94884.56;5089678;28;20437;-68
2021/07/03 03:25:12;;;;;;;2.53;1.73;;;;;;;20.46;46.11;94891.75;5088125;28;20814;-67
2021/07/03 03:27:40;;;;;;;2.07;1.80;;;;;;;20.30;46.27;94888.03;5089579;28;20426;-68
2021/07/03 03:30:09;;;;;;;7.07;1.87;;;;;;;20.30;46.41;94888.03;5087983;28;20517;-70
2021/07/03 03:32:39;;;;;;;1.93;1.50;;;;;;;20.09;47.10;94892.38;5088606;28;20227;-66
2021/07/03 03:35:09;;;;;;;2.50;1.50;;;;;;;20.30;46.57;94888.03;5086752;28;20535;-66
2021/07/03 03:37:36;;;;;;;4.20;2.67;;;;;;;20.37;46.48;94898.97;5083605;28;20231;-66
2021/07/03 03:40:06;;;;;;;3.77;1.87;;;;;;;20.25;46.76;94900.72;5069906;28;20955;-65
2021/07/03 03:42:34;;;;;;;4.30;1.60;;;;;;;20.16;46.97;94906.03;5070329;28;20433;-67
2021/07/03 03:45:06;;;;;;;3.07;1.70;;;;;;;20.56;46.29;94902.06;5083583;28;20950;-69
2021/07/03 03:47:35;;;;;;;6.17;2.03;;;;;;;20.51;46.18;94896.91;5091872;28;20444;-70
2021/07/03 03:50:06;;;;;;;1.77;1.53;;;;;;;20.55;46.08;94894.38;5088997;28;20199;-68
2021/07/03 03:52:33;;;;;;;6.13;1.90;;;;;;;20.63;46.05;94901.56;5077065;28;20445;-66
2021/07/03 03:55:02;;;;;;;3.57;2.00;;;;;;;20.36;46.78;94897.41;5092902;28;20470;-67
2021/07/03 03:57:30;;;;;;;2.37;1.93;;;;;;;20.54;46.28;94896.28;5078953;28;20247;-68
2021/07/03 04:00:07;;;;;;;2.77;2.03;;;;;;;20.56;46.49;94883.44;5082914;28;20237;-70
2021/07/03 04:02:40;;;;;;;2.80;2.13;;;;;;;20.76;46.04;94888.06;5098316;28;20537;-70
2021/07/03 04:05:09;;;;;;;4.03;2.27;;;;;;;20.90;45.81;94896.63;5091598;28;20442;-69
2021/07/03 04:07:38;;;;;;;4.23;2.20;;;;;;;20.62;46.64;94887.47;5096457;28;20794;-67
2021/07/03 04:10:08;;;;;;;4.80;2.10;;;;;;;20.95;45.62;94891.13;5088996;28;20453;-69
2021/07/03 04:12:36;;;;;;;3.10;2.30;;;;;;;20.76;46.30;94896.06;5099958;28;20201;-68
2021/07/03 04:15:06;;;;;;;3.37;2.23;;;;;;;21.03;46.10;94895.66;5094239;28;20196;-69
2021/07/03 04:17:33;;;;;;;4.13;2.07;;;;;;;20.91;45.97;94898.19;5091818;28;20280;-67
2021/07/03 04:20:00;;;;;;;3.90;2.40;;;;;;;20.76;46.51;94893.41;5082395;28;20448;-68
2021/07/03 04:22:27;;;;;;;2.80;1.90;;;;;;;20.87;46.64;94907.94;5087970;28;20199;-68
2021/07/03 04:24:54;;;;;;;3.37;2.33;;;;;;;20.97;46.78;94902.22;5080384;28;20191;-67
2021/07/03 04:27:21;;;;;;;4.47;2.10;;;;;;;21.17;45.95;94906.88;5091318;28;20624;-66
2021/07/03 04:29:48;;;;;;;3.63;2.53;;;;;;;20.95;46.63;94914.31;5091302;28;20187;-66
2021/07/03 04:32:14;;;;;;;2.97;2.30;;;;;;;21.26;46.31;94906.81;5051604;28;1139547;-66
2021/07/03 04:34:42;;;;;;;4.43;2.30;;;;;;;21.30;46.25;94909.63;5092034;28;20270;-65
2021/07/03 04:37:10;;;;;;;3.63;2.57;;;;;;;21.21;46.27;94923.00;5089669;28;20215;-69
2021/07/03 04:39:38;;;;;;;5.23;2.20;;;;;;;21.36;46.00;94916.34;5081438;28;20647;-64
2021/07/03 04:42:05;;;;;;;2.53;2.33;;;;;;;21.42;45.82;94915.06;5076797;28;20249;-69
2021/07/03 04:44:32;;;;;;;6.40;2.60;;;;;;;21.05;46.59;94914.78;5079728;28;20203;-66
2021/07/03 04:46:59;;;;;;;4.67;2.40;;;;;;;21.59;45.96;94912.28;5092657;28;20198;-67
2021/07/03 04:49:31;;;;;;;5.30;2.60;;;;;;;21.12;46.04;94924.94;5085244;28;20674;-67
2021/07/03 04:52:00;;;;;;;5.00;2.37;;;;;;;21.25;46.13;94923.16;5085499;28;20207;-67
2021/07/03 04:54:27;;;;;;;5.60;2.60;;;;;;;21.63;45.38;94926.53;5091304;28;20191;-69
2021/07/03 04:57:07;;;;;;;3.60;2.20;;;;;;;21.39;45.29;94923.69;5092445;28;20218;-65
2021/07/03 04:59:38;;;;;;;4.80;2.60;;;;;;;21.31;45.57;94922.66;5091216;28;20195;-67
2021/07/03 05:02:08;;;;;;;3.57;2.70;;;;;;;21.70;45.67;94924.13;5092217;28;20226;-67
2021/07/03 05:04:36;;;;;;;3.97;2.60;;;;;;;21.61;45.16;94923.41;5091257;28;20282;-67
2021/07/03 05:07:04;;;;;;;5.17;2.40;;;;;;;21.72;44.93;94927.25;5092075;28;20206;-67
2021/07/03 05:09:37;;;;;;;2.60;2.37;;;;;;;21.54;45.19;94929.25;5090168;28;20205;-69
2021/07/03 05:12:04;;;;;;;3.53;2.60;;;;;;;21.48;44.75;94930.53;5091995;28;20444;-66
2021/07/03 05:14:31;;;;;;;6.40;3.00;;;;;;;21.27;45.26;94919.06;5091080;28;20669;-66
2021/07/03 05:16:58;;;;;;;7.20;2.90;;;;;;;21.41;45.06;94926.81;5091677;28;20532;-70
2021/07/03 05:19:25;;;;;;;5.23;3.03;;;;;;;21.79;44.99;94932.88;5091486;28;20327;-69
2021/07/03 05:21:52;;;;;;;7.57;3.17;;;;;;;21.94;43.96;94927.78;5092217;28;20203;-73
2021/07/03 05:24:19;;;;;;;7.33;3.53;;;;;;;21.77;44.14;94929.75;5090559;28;20187;-67
2021/07/03 05:26:46;;;;;;;8.97;3.30;;;;;;;21.64;44.27;94925.44;5092004;28;20203;-66
2021/07/03 05:29:13;;;;;;;4.37;3.40;;;;;;;21.64;44.43;94922.78;5091206;28;20188;-66
2021/07/03 05:31:40;;;;;;;7.47;3.10;;;;;;;21.38;45.14;94930.13;5091702;28;20231;-67
2021/07/03 05:34:07;;;;;;;5.30;3.37;;;;;;;21.34;44.50;94930.00;5091261;28;20206;-66
2021/07/03 05:36:34;;;;;;;4.70;3.10;;;;;;;21.24;44.82;94924.25;5091440;28;20206;-64
2021/07/03 05:39:04;;;;;;;5.43;3.20;;;;;;;21.29;44.32;94926.72;5076752;28;20215;-71
2021/07/03 05:41:33;;;;;;;5.77;3.27;;;;;;;21.18;44.75;94928.97;5091884;28;20199;-65
2021/07/03 05:44:02;;;;;;;3.87;3.10;;;;;;;21.67;43.72;94924.78;5076582;28;20730;-66
2021/07/03 05:46:29;;;;;;;5.03;2.83;;;;;;;21.32;44.16;94923.41;5090989;28;20439;-70
2021/07/03 05:49:01;;;;;;;6.07;3.20;;;;;;;21.33;45.18;94941.00;5087997;28;20452;-66
2021/07/03 05:51:28;;;;;;;3.80;3.23;;;;;;;21.62;44.61;94933.75;5071313;28;20195;-65
2021/07/03 05:53:56;;;;;;;5.40;3.37;;;;;;;21.92;43.52;94926.53;5085843;28;20187;-65
2021/07/03 05:56:26;;;;;;;5.53;3.57;;;;;;;21.67;43.52;94935.47;5090915;28;20195;-66
2021/07/03 05:58:55;;;;;;;5.00;3.43;;;;;;;21.58;43.87;94932.06;5091083;28;20238;-66
2021/07/03 06:01:23;;;;;;;4.23;3.20;;;;;;;21.85;44.48;94923.59;5083218;28;20210;-65
2021/07/03 06:03:50;;;;;;;3.10;2.80;;;;;;;22.02;43.42;94936.81;5083916;28;20598;-70
2021/07/03 06:06:17;;;;;;;4.73;3.07;;;;;;;22.14;43.42;94928.84;5090174;28;20621;-69
2021/07/03 06:08:44;;;;;;;4.20;2.30;;;;;;;22.10;42.26;94927.94;5090876;28;20195;-68
2021/07/03 06:11:12;;;;;;;6.30;2.87;;;;;;;22.28;42.63;94936.59;5088579;28;20199;-69
2021/07/03 06:13:40;;;;;;;5.43;2.90;;;;;;;22.11;41.99;94940.19;5090907;28;20194;-65
2021/07/03 06:16:07;;;;;;;9.93;2.90;;;;;;;22.29;42.08;94938.94;5088108;28;20210;-69
2021/07/03 06:18:34;;;;;;;7.83;2.97;;;;;;;21.97;42.49;94923.66;5071280;28;20298;-68
2021/07/03 06:21:01;;;;;;;8.67;3.30;;;;;;;21.37;43.33;94928.59;5090007;28;20256;-68
2021/07/03 06:23:29;;;;;;;8.00;2.90;;;;;;;21.35;43.48;94928.13;5090249;28;20609;-68
2021/07/03 06:26:00;;;;;;;4.87;3.20;;;;;;;21.18;43.40;94919.09;5089869;28;20195;-70
2021/07/03 06:28:27;;;;;;;6.90;3.03;;;;;;;21.32;43.27;94934.06;5090786;28;20731;-69
2021/07/03 06:30:54;;;;;;;7.07;2.90;;;;;;;21.57;43.09;94925.19;5089986;28;20194;-66
2021/07/03 06:33:22;;;;;;;5.87;2.93;;;;;;;21.36;43.50;94924.34;5089474;28;20209;-70
2021/07/03 06:35:49;;;;;;;6.83;3.40;;;;;;;21.60;42.97;94924.53;5091256;28;20293;-63
2021/07/03 06:38:17;;;;;;;4.83;2.87;;;;;;;21.54;43.11;94923.13;5082313;28;20234;-69
2021/07/03 06:40:44;;;;;;;8.30;3.53;;;;;;;22.00;43.07;94923.03;5078864;28;20184;-67
2021/07/03 06:43:12;;;;;;;3.20;2.73;;;;;;;22.31;42.25;94923.38;5079177;28;20708;-70
2021/07/03 06:45:39;;;;;;;4.00;2.93;;;;;;;22.18;42.00;94935.13;5094094;28;20203;-65
2021/07/03 06:48:06;;;;;;;7.00;3.60;;;;;;;22.30;41.65;94934.41;5089594;28;20200;-64
2021/07/03 06:50:33;;;;;;;4.97;3.00;;;;;;;22.28;41.74;94933.94;5090611;28;20187;-67
2021/07/03 06:53:01;;;;;;;9.13;3.50;;;;;;;22.29;41.26;94938.16;5081373;28;20219;-67
2021/07/03 06:55:28;;;;;;;7.73;2.70;;;;;;;22.73;40.72;94940.91;5089837;28;20219;-70
2021/07/03 06:57:54;;;;;;;4.17;2.70;;;;;;;22.76;40.50;94929.56;5076045;28;20206;-70
2021/07/03 07:00:21;;;;;;;7.33;2.87;;;;;;;22.97;40.28;94924.91;5077183;28;20267;-67
2021/07/03 07:02:48;;;;;;;7.03;2.53;;;;;;;22.28;41.20;94926.69;5069634;28;20192;-69
2021/07/03 07:05:19;;;;;;;3.00;2.63;;;;;;;22.48;40.98;94938.47;5080497;28;20191;-71
2021/07/03 07:07:46;;;;;;;6.07;2.40;;;;;;;22.36;40.60;94933.84;5075671;28;20206;-67
2021/07/03 07:10:13;;;;;;;9.77;2.63;;;;;;;22.27;39.96;94941.16;5089648;28;20195;-68
2021/07/03 07:12:40;;;;;;;4.73;2.60;;;;;;;22.33;40.27;94934.53;5088281;28;20535;-66
2021/07/03 07:15:09;;;;;;;7.13;2.33;;;;;;;21.87;40.93;94930.19;5068719;28;20195;-64
2021/07/03 07:17:36;;;;;;;5.63;2.33;;;;;;;21.97;41.54;94927.09;5083702;28;20301;-64
2021/07/03 07:20:04;;;;;;;5.73;2.20;;;;;;;21.90;41.16;94926.84;5090720;28;20256;-68
2021/07/03 07:22:32;;;;;;;5.43;2.60;;;;;;;22.16;41.13;94923.97;5089972;28;20199;-64
2021/07/03 07:24:59;;;;;;;13.73;3.03;;;;;;;22.24;40.99;94930.34;5089458;28;20207;-67
2021/07/03 07:27:26;;;;;;;3.77;2.47;;;;;;;22.45;41.04;94931.88;5089897;28;20624;-65
2021/07/03 07:29:53;;;;;;;5.40;2.60;;;;;;;22.40;41.43;94925.97;5089121;28;20191;-70
2021/07/03 07:32:20;;;;;;;3.30;2.40;;;;;;;22.01;41.63;94932.56;5089119;28;20242;-65
2021/07/03 07:34:47;;;;;;;6.27;2.50;;;;;;;22.22;41.62;94920.00;5088976;28;20256;-68
2021/07/03 07:37:14;;;;;;;4.50;2.87;;;;;;;22.67;41.08;94931.53;5086337;28;20628;-63
2021/07/03 07:39:41;;;;;;;4.50;3.10;;;;;;;22.55;41.14;94931.53;5068994;28;20227;-65
2021/07/03 07:42:08;;;;;;;6.80;3.13;;;;;;;22.48;41.17;94928.53;5083169;28;20207;-70
2021/07/03 07:44:36;;;;;;;3.37;2.83;;;;;;;22.38;41.30;94931.63;5080580;28;20186;-66
2021/07/03 07:47:03;;;;;;;4.73;2.70;;;;;;;22.64;40.80;94932.22;5089346;28;20197;-67
2021/07/03 07:49:30;;;;;;;6.77;3.17;;;;;;;22.54;40.80;94937.91;5081973;28;20275;-70
2021/07/03 07:51:58;;;;;;;4.43;2.50;;;;;;;23.09;40.46;94940.19;5069389;28;20199;-70
2021/07/03 07:54:25;;;;;;;8.30;3.03;;;;;;;22.74;40.18;94923.75;5088099;28;20194;-66
2021/07/03 07:56:52;;;;;;;9.60;2.80;;;;;;;23.00;40.20;94940.31;5077874;28;20669;-65
2021/07/03 07:59:18;;;;;;;4.03;2.73;;;;;;;22.93;40.65;94939.28;5068734;28;20208;-69
2021/07/03 08:01:45;;;;;;;4.63;3.00;;;;;;;22.52;40.90;94944.69;5078871;28;20240;-70
2021/07/03 08:04:12;;;;;;;4.60;2.50;;;;;;;22.43;41.04;94939.44;5088339;28;20249;-70
2021/07/03 08:06:39;;;;;;;5.87;2.83;;;;;;;22.40;41.52;94932.09;5081442;28;20196;-68
2021/07/03 08:09:06;;;;;;;12.70;3.40;;;;;;;22.64;41.12;94936.75;5082545;28;20619;-67
2021/07/03 08:11:33;;;;;;;4.73;2.70;;;;;;;23.33;41.08;94928.75;5088909;28;20191;-66
2021/07/03 08:14:00;;;;;;;3.17;2.60;;;;;;;23.36;40.99;94933.44;5076287;28;20642;-69
2021/07/03 08:16:27;;;;;;;6.43;2.70;;;;;;;23.20;40.66;94948.56;5073336;28;20282;-71
2021/07/03 08:18:54;;;;;;;8.97;2.80;;;;;;;23.20;40.54;94943.19;5088641;28;20246;-64
2021/07/03 08:21:21;;;;;;;4.73;2.80;;;;;;;22.59;41.22;94940.41;5088595;28;20195;-67
2021/07/03 08:23:48;;;;;;;6.17;2.83;;;;;;;22.63;41.07;94938.66;5087894;28;20203;-68
2021/07/03 08:26:15;;;;;;;5.00;2.53;;;;;;;22.50;41.42;94942.34;5091097;28;20195;-68
2021/07/03 08:28:42;;;;;;;7.53;2.70;;;;;;;22.76;41.53;94942.91;5093016;28;20228;-68
2021/07/03 08:31:09;;;;;;;2.90;2.57;;;;;;;23.03;41.47;94947.66;5091314;28;20279;-69
2021/07/03 08:33:36;;;;;;;4.00;2.60;;;;;;;23.17;41.12;94934.72;5092785;28;20203;-69
2021/07/03 08:36:03;;;;;;;4.50;3.07;;;;;;;22.84;41.73;94930.59;5091844;28;20187;-64
2021/07/03 08:38:31;;;;;;;6.90;2.90;;;;;;;22.69;41.10;94937.34;5077879;28;20223;-68
2021/07/03 08:40:58;;;;;;;6.67;3.03;;;;;;;22.78;41.08;94945.25;5078512;28;20286;-66
2021/07/03 08:43:25;;;;;;;4.57;3.00;;;;;;;23.13;40.94;94944.56;5093014;28;20203;-66
2021/07/03 08:45:57;;;;;;;7.23;3.03;;;;;;;23.17;40.14;94935.88;5087202;28;20270;-68
2021/07/03 08:48:24;;;;;;;5.80;2.90;;;;;;;23.27;39.64;94946.88;5072448;28;20192;-69
2021/07/03 08:50:57;;;;;;;5.03;2.77;;;;;;;23.14;39.91;94946.09;5090107;28;20199;-68
2021/07/03 08:53:25;;;;;;;4.10;2.90;;;;;;;23.52;39.93;94923.66;5081614;28;20222;-66
2021/07/03 08:55:52;;;;;;;7.93;3.27;;;;;;;23.36;38.86;94930.75;5089152;28;20199;-66
2021/07/03 08:58:19;;;;;;;5.80;3.93;;;;;;;23.15;38.80;94930.84;5082795;28;20216;-67
2021/07/03 09:00:47;;;;;;;5.80;4.23;;;;;;;23.66;39.41;94929.41;5088564;28;20206;-64
2021/07/03 09:03:25;;;;;;;5.60;3.47;;;;;;;23.70;38.00;94919.63;5084275;28;20196;-66
2021/07/03 09:05:55;;;;;;;7.33;4.00;;;;;;;23.66;38.45;94924.06;5075898;28;20192;-68
2021/07/03 09:08:24;;;;;;;32.53;5.27;;;;;;;23.46;38.78;94935.69;5092396;28;20191;-67
2021/07/03 09:11:05;;;;;;;11.33;3.37;;;;;;;23.29;38.78;94925.97;5080056;28;20207;-71
2021/07/03 09:13:34;;;;;;;17.70;14.67;;;;;;;23.18;39.50;94930.19;5092098;28;20203;-66
2021/07/03 09:16:02;;;;;;;6.23;5.23;;;;;;;23.89;39.68;94927.81;5076165;28;20930;-68
2021/07/03 09:18:30;;;;;;;10.27;5.53;;;;;;;24.01;38.91;94925.16;5086680;28;20286;-68
2021/07/03 09:20:59;;;;;;;17.33;14.07;;;;;;;23.90;38.29;94924.03;5104511;28;20195;-66
2021/07/03 09:23:35;;;;;;;7.03;5.47;;;;;;;23.85;38.92;94910.88;5105237;28;20199;-67
2021/07/03 09:26:11;;;;;;;5.13;4.17;;;;;;;24.15;38.99;94908.69;5104433;28;20634;-69
2021/07/03 09:28:40;;;;;;;5.47;4.27;;;;;;;24.19;38.29;94915.72;5102706;28;20195;-68
2021/07/03 09:31:09;;;;;;;8.37;3.90;;;;;;;23.95;38.70;94907.72;5097520;28;20223;-69
2021/07/03 09:33:44;;;;;;;4.60;4.17;;;;;;;23.81;39.30;94912.69;5091392;28;20223;-64
2021/07/03 09:36:22;;;;;;;5.37;4.37;;;;;;;23.85;39.13;94910.88;5084151;28;20579;-65
2021/07/03 09:38:53;;;;;;;11.77;4.60;;;;;;;23.49;39.27;94911.72;5088341;28;20237;-70
2021/07/03 09:41:29;;;;;;;7.20;4.67;;;;;;;23.68;39.49;94913.81;5091401;28;20209;-67
2021/07/03 09:44:08;;;;;;;11.77;8.97;;;;;;;23.49;39.95;94909.03;5088150;28;20653;-71
2021/07/03 09:46:40;;;;;;;15.30;13.77;;;;;;;24.36;39.78;94902.03;5082094;28;20203;-67
2021/07/03 09:49:10;;;;;;;9.50;6.07;;;;;;;23.78;39.17;94905.31;5087066;28;20196;-68
2021/07/03 09:51:41;;;;;;;15.63;5.23;;;;;;;23.80;38.86;94903.88;5081037;28;20199;-71
2021/07/03 09:54:10;;;;;;;5.20;4.73;;;;;;;23.85;38.52;94905.50;5090592;28;20213;-67
2021/07/03 09:56:39;;;;;;;12.00;4.90;;;;;;;24.42;37.82;94897.22;5081547;28;20202;-68
2021/07/03 09:59:08;;;;;;;11.00;4.97;;;;;;;24.70;36.77;94890.75;5085909;28;20211;-66
2021/07/03 10:01:41;;;;;;;5.97;5.10;;;;;;;25.07;37.31;94897.41;5091091;28;20282;-71
2021/07/03 10:04:11;;;;;;;6.53;4.73;;;;;;;24.57;37.45;94902.63;5090206;28;20244;-66
2021/07/03 10:06:41;;;;;;;8.27;5.20;;;;;;;24.37;37.50;94911.63;5083345;28;20192;-69
2021/07/03 10:09:11;;;;;;;5.33;4.83;;;;;;;24.15;38.43;94912.16;5069870;28;20208;-69
2021/07/03 10:11:47;;;;;;;5.63;5.13;;;;;;;24.33;37.54;94894.69;5077584;28;20198;-68
2021/07/03 10:14:15;;;;;;;26.97;22.17;;;;;;;24.41;37.68;94901.81;5075547;28;20219;-70
2021/07/03 10:16:43;;;;;;;12.23;11.03;;;;;;;24.48;37.43;94891.28;5090600;28;20186;-65
2021/07/03 10:19:14;;;;;;;5.93;5.40;;;;;;;24.29;37.14;94883.09;5090494;28;20246;-63
2021/07/03 10:21:46;;;;;;;7.27;5.83;;;;;;;24.70;37.12;94874.66;5090469;28;20199;-66
2021/07/03 10:24:21;;;;;;;10.33;9.00;;;;;;;24.28;36.78;94888.78;5089768;28;20195;-68
2021/07/03 10:26:52;;;;;;;32.87;7.50;;;;;;;24.49;36.43;94892.81;5090538;28;20214;-69
2021/07/03 10:29:21;;;;;;;7.07;5.57;;;;;;;24.90;36.42;94887.03;5085337;28;20188;-68
2021/07/03 10:31:50;;;;;;;10.50;5.50;;;;;;;25.34;36.21;94884.25;5080784;28;20234;-68
2021/07/03 10:34:32;;;;;;;9.20;5.43;;;;;;;24.73;35.54;94876.66;5089711;28;20206;-72
2021/07/03 10:37:09;;;;;;;5.77;5.27;;;;;;;25.42;35.39;94877.97;5090916;28;20192;-68
2021/07/03 10:39:37;;;;;;;16.60;5.63;;;;;;;25.20;34.82;94868.59;5089246;28;20656;-68
2021/07/03 10:42:04;;;;;;;6.80;6.20;;;;;;;25.50;34.72;94867.03;5089676;28;20198;-67
2021/07/03 10:44:42;;;;;;;6.57;5.67;;;;;;;25.82;34.95;94873.09;5089465;28;20665;-66
2021/07/03 10:47:12;;;;;;;6.23;5.70;;;;;;;25.69;35.14;94858.25;5089474;28;20191;-68
2021/07/03 10:49:40;;;;;;;7.27;5.23;;;;;;;25.88;34.19;94871.66;5089879;28;20195;-64
2021/07/03 10:52:14;;;;;;;7.87;5.67;;;;;;;25.97;35.30;94864.97;5090124;28;20222;-67
2021/07/03 10:54:44;;;;;;;5.90;5.30;;;;;;;26.16;34.90;94850.81;5089387;28;20202;-67
2021/07/03 10:57:11;;;;;;;6.00;5.30;;;;;;;25.78;34.39;94858.81;5090108;28;20195;-69
2021/07/03 10:59:42;;;;;;;5.73;5.17;;;;;;;25.41;34.65;94844.19;5075979;28;20688;-70
2021/07/03 11:02:17;;;;;;;7.63;5.57;;;;;;;25.39;34.95;94849.13;5089716;28;20649;-71
2021/07/03 11:04:48;;;;;;;9.10;5.37;;;;;;;25.55;34.70;94837.25;5089563;28;20259;-70
2021/07/03 11:07:30;;;;;;;5.60;5.10;;;;;;;25.41;35.23;94844.19;5089941;28;20298;-67
2021/07/03 11:10:08;;;;;;;5.80;4.90;;;;;;;25.50;34.48;94826.00;5087631;28;20274;-65
2021/07/03 11:12:52;;;;;;;6.63;4.83;;;;;;;25.80;35.45;94838.53;5089746;28;20199;-64
2021/07/03 11:15:23;;;;;;;5.70;5.10;;;;;;;26.55;34.04;94820.03;5089211;28;20610;-69
2021/07/03 11:17:51;;;;;;;4.90;4.50;;;;;;;26.47;33.23;94834.50;5089585;28;20831;-64
2021/07/03 11:20:25;;;;;;;5.40;4.90;;;;;;;25.98;33.96;94833.53;5089639;28;20575;-68
2021/07/03 11:22:53;;;;;;;6.43;5.80;;;;;;;25.92;35.14;94829.56;5077272;28;20661;-67
2021/07/03 11:25:29;;;;;;;5.30;4.37;;;;;;;25.63;32.26;94832.81;5089754;28;20191;-73
2021/07/03 11:28:05;;;;;;;5.07;4.37;;;;;;;25.15;33.23;94833.22;5076000;28;20186;-70
2021/07/03 11:30:32;;;;;;;6.03;5.53;;;;;;;25.14;35.64;94823.63;5089204;28;20277;-65
2021/07/03 11:33:00;;;;;;;7.03;5.53;;;;;;;24.79;36.17;94827.03;5075339;28;20254;-66
2021/07/03 11:35:29;;;;;;;5.93;5.33;;;;;;;25.67;35.24;94822.94;5089256;28;20286;-67
2021/07/03 11:37:57;;;;;;;6.03;5.50;;;;;;;25.37;36.46;94824.53;5089548;28;20280;-70
2021/07/03 11:40:26;;;;;;;6.43;5.47;;;;;;;25.04;36.36;94828.41;5088871;28;20223;-68